sensor_id;sensor_type;location;lat;lon;timestamp;P1;durP1;ratioP1;P2;durP2;ratioP2
37645;SDS011;23489;49.600;6.138;2024-03-25T00:00:40;4.97;;;2.90;;
37645;SDS011;23489;49.600;6.138;2024-03-25T00:03:06;5.95;;;2.92;;
37645;SDS011;23489;49.600;6.138;2024-03-25T00:05:31;5.53;;;3.08;;
37645;SDS011;23489;49.600;6.138;2024-03-25T00:07:57;3.63;;;2.60;;
37645;SDS011;23489;49.600;6.138;2024-03-25T00:10:24;8.43;;;3.08;;
37645;SDS011;23489;49.600;6.138;2024-03-25T00:12:49;5.18;;;3.10;;
37645;SDS011;23489;49.600;6.138;2024-03-25T00:15:19;6.15;;;3.00;;
37645;SDS011;23489;49.600;6.138;2024-03-25T00:17:46;7.10;;;2.97;;
37645;SDS011;23489;49.600;6.138;2024-03-25T00:20:13;5.53;;;2.67;;
37645;SDS011;23489;49.600;6.138;2024-03-25T00:22:40;4.45;;;2.50;;
37645;SDS011;23489;49.600;6.138;2024-03-25T00:25:06;5.07;;;2.75;;
37645;SDS011;23489;49.600;6.138;2024-03-25T00:27:33;6.35;;;2.42;;
37645;SDS011;23489;49.600;6.138;2024-03-25T00:29:58;4.70;;;2.85;;
37645;SDS011;23489;49.600;6.138;2024-03-25T00:32:24;4.00;;;3.22;;
37645;SDS011;23489;49.600;6.138;2024-03-25T00:34:50;8.85;;;3.42;;
37645;SDS011;23489;49.600;6.138;2024-03-25T00:37:15;4.32;;;2.60;;
37645;SDS011;23489;49.600;6.138;2024-03-25T00:39:41;7.20;;;3.45;;
37645;SDS011;23489;49.600;6.138;2024-03-25T00:42:07;8.18;;;3.08;;
37645;SDS011;23489;49.600;6.138;2024-03-25T00:44:33;6.65;;;3.20;;
37645;SDS011;23489;49.600;6.138;2024-03-25T00:46:58;7.65;;;3.25;;
37645;SDS011;23489;49.600;6.138;2024-03-25T00:49:25;9.75;;;3.53;;
37645;SDS011;23489;49.600;6.138;2024-03-25T00:51:51;10.02;;;4.10;;
37645;SDS011;23489;49.600;6.138;2024-03-25T00:54:17;7.03;;;3.30;;
37645;SDS011;23489;49.600;6.138;2024-03-25T00:56:43;3.75;;;3.05;;
37645;SDS011;23489;49.600;6.138;2024-03-25T00:59:09;10.15;;;3.50;;
37645;SDS011;23489;49.600;6.138;2024-03-25T01:01:35;4.93;;;3.20;;
37645;SDS011;23489;49.600;6.138;2024-03-25T01:04:03;7.07;;;3.28;;
37645;SDS011;23489;49.600;6.138;2024-03-25T01:06:29;5.03;;;3.13;;
37645;SDS011;23489;49.600;6.138;2024-03-25T01:08:55;9.68;;;3.78;;
37645;SDS011;23489;49.600;6.138;2024-03-25T01:11:21;7.30;;;3.53;;
37645;SDS011;23489;49.600;6.138;2024-03-25T01:13:47;10.40;;;4.55;;
37645;SDS011;23489;49.600;6.138;2024-03-25T01:16:14;6.93;;;4.07;;
37645;SDS011;23489;49.600;6.138;2024-03-25T01:18:39;8.48;;;3.40;;
37645;SDS011;23489;49.600;6.138;2024-03-25T01:21:05;11.73;;;4.15;;
37645;SDS011;23489;49.600;6.138;2024-03-25T01:23:31;10.18;;;4.20;;
37645;SDS011;23489;49.600;6.138;2024-03-25T01:25:57;9.95;;;3.97;;
37645;SDS011;23489;49.600;6.138;2024-03-25T01:28:23;5.57;;;3.38;;
37645;SDS011;23489;49.600;6.138;2024-03-25T01:30:49;8.88;;;4.78;;
37645;SDS011;23489;49.600;6.138;2024-03-25T01:33:15;7.70;;;3.83;;
37645;SDS011;23489;49.600;6.138;2024-03-25T01:35:41;12.45;;;4.30;;
37645;SDS011;23489;49.600;6.138;2024-03-25T01:38:07;9.48;;;3.97;;
37645;SDS011;23489;49.600;6.138;2024-03-25T01:40:33;7.72;;;4.57;;
37645;SDS011;23489;49.600;6.138;2024-03-25T01:42:59;10.88;;;4.47;;
37645;SDS011;23489;49.600;6.138;2024-03-25T01:45:29;8.10;;;4.28;;
37645;SDS011;23489;49.600;6.138;2024-03-25T01:47:56;9.50;;;4.35;;
37645;SDS011;23489;49.600;6.138;2024-03-25T01:50:24;8.68;;;4.50;;
37645;SDS011;23489;49.600;6.138;2024-03-25T01:52:51;13.23;;;4.90;;
37645;SDS011;23489;49.600;6.138;2024-03-25T01:55:17;7.28;;;4.47;;
37645;SDS011;23489;49.600;6.138;2024-03-25T01:57:46;10.35;;;4.65;;
37645;SDS011;23489;49.600;6.138;2024-03-25T02:00:13;9.52;;;4.95;;
37645;SDS011;23489;49.600;6.138;2024-03-25T02:02:45;10.32;;;4.47;;
37645;SDS011;23489;49.600;6.138;2024-03-25T02:05:12;8.18;;;4.00;;
37645;SDS011;23489;49.600;6.138;2024-03-25T02:07:41;10.02;;;4.55;;
37645;SDS011;23489;49.600;6.138;2024-03-25T02:10:08;10.00;;;4.10;;
37645;SDS011;23489;49.600;6.138;2024-03-25T02:12:35;8.00;;;4.72;;
37645;SDS011;23489;49.600;6.138;2024-03-25T02:15:05;8.02;;;4.70;;
37645;SDS011;23489;49.600;6.138;2024-03-25T02:17:31;8.98;;;4.93;;
37645;SDS011;23489;49.600;6.138;2024-03-25T02:19:57;10.52;;;5.03;;
37645;SDS011;23489;49.600;6.138;2024-03-25T02:22:22;10.40;;;4.95;;
37645;SDS011;23489;49.600;6.138;2024-03-25T02:24:49;8.77;;;4.85;;
37645;SDS011;23489;49.600;6.138;2024-03-25T02:27:17;8.80;;;4.85;;
37645;SDS011;23489;49.600;6.138;2024-03-25T02:29:43;11.13;;;4.55;;
37645;SDS011;23489;49.600;6.138;2024-03-25T02:32:09;6.47;;;3.90;;
37645;SDS011;23489;49.600;6.138;2024-03-25T02:34:39;9.57;;;4.25;;
37645;SDS011;23489;49.600;6.138;2024-03-25T02:37:16;14.35;;;4.57;;
37645;SDS011;23489;49.600;6.138;2024-03-25T02:39:42;12.52;;;4.45;;
37645;SDS011;23489;49.600;6.138;2024-03-25T02:42:08;13.95;;;5.68;;
37645;SDS011;23489;49.600;6.138;2024-03-25T02:44:34;9.80;;;4.47;;
37645;SDS011;23489;49.600;6.138;2024-03-25T02:47:01;10.48;;;4.85;;
37645;SDS011;23489;49.600;6.138;2024-03-25T02:49:27;15.98;;;5.68;;
37645;SDS011;23489;49.600;6.138;2024-03-25T02:51:53;9.05;;;4.88;;
37645;SDS011;23489;49.600;6.138;2024-03-25T02:54:19;10.13;;;4.78;;
37645;SDS011;23489;49.600;6.138;2024-03-25T02:56:44;8.93;;;4.60;;
37645;SDS011;23489;49.600;6.138;2024-03-25T02:59:10;14.68;;;4.88;;
37645;SDS011;23489;49.600;6.138;2024-03-25T03:01:36;9.25;;;4.32;;
37645;SDS011;23489;49.600;6.138;2024-03-25T03:04:01;9.63;;;4.97;;
37645;SDS011;23489;49.600;6.138;2024-03-25T03:06:27;8.98;;;4.80;;
37645;SDS011;23489;49.600;6.138;2024-03-25T03:08:53;10.38;;;5.45;;
37645;SDS011;23489;49.600;6.138;2024-03-25T03:11:18;14.48;;;5.22;;
37645;SDS011;23489;49.600;6.138;2024-03-25T03:13:45;16.63;;;5.20;;
37645;SDS011;23489;49.600;6.138;2024-03-25T03:16:11;10.77;;;4.95;;
37645;SDS011;23489;49.600;6.138;2024-03-25T03:18:37;7.72;;;4.13;;
37645;SDS011;23489;49.600;6.138;2024-03-25T03:21:03;7.47;;;4.88;;
37645;SDS011;23489;49.600;6.138;2024-03-25T03:23:29;11.85;;;4.38;;
37645;SDS011;23489;49.600;6.138;2024-03-25T03:25:56;8.45;;;4.78;;
37645;SDS011;23489;49.600;6.138;2024-03-25T03:28:24;9.07;;;4.07;;
37645;SDS011;23489;49.600;6.138;2024-03-25T03:30:50;5.65;;;3.90;;
37645;SDS011;23489;49.600;6.138;2024-03-25T03:33:16;9.52;;;4.10;;
37645;SDS011;23489;49.600;6.138;2024-03-25T03:35:42;6.43;;;4.00;;
37645;SDS011;23489;49.600;6.138;2024-03-25T03:38:08;8.18;;;4.55;;
37645;SDS011;23489;49.600;6.138;2024-03-25T03:40:34;9.45;;;4.40;;
37645;SDS011;23489;49.600;6.138;2024-03-25T03:42:59;9.52;;;3.72;;
37645;SDS011;23489;49.600;6.138;2024-03-25T05:39:39;8.57;;;4.38;;
37645;SDS011;23489;49.600;6.138;2024-03-25T05:42:04;12.30;;;6.93;;
37645;SDS011;23489;49.600;6.138;2024-03-25T05:44:30;15.95;;;6.88;;
37645;SDS011;23489;49.600;6.138;2024-03-25T05:50:44;14.35;;;7.57;;
37645;SDS011;23489;49.600;6.138;2024-03-25T05:53:09;14.13;;;7.20;;
37645;SDS011;23489;49.600;6.138;2024-03-25T05:55:35;12.85;;;6.90;;
37645;SDS011;23489;49.600;6.138;2024-03-25T05:58:01;10.90;;;6.95;;
37645;SDS011;23489;49.600;6.138;2024-03-25T06:00:28;12.65;;;7.05;;
37645;SDS011;23489;49.600;6.138;2024-03-25T06:02:55;13.55;;;7.43;;
37645;SDS011;23489;49.600;6.138;2024-03-25T06:05:21;13.57;;;6.00;;
37645;SDS011;23489;49.600;6.138;2024-03-25T06:07:47;10.70;;;5.10;;
37645;SDS011;23489;49.600;6.138;2024-03-25T06:10:13;8.60;;;5.00;;
37645;SDS011;23489;49.600;6.138;2024-03-25T06:12:39;13.05;;;6.40;;
37645;SDS011;23489;49.600;6.138;2024-03-25T06:15:06;12.52;;;6.22;;
37645;SDS011;23489;49.600;6.138;2024-03-25T06:17:32;11.60;;;5.75;;
37645;SDS011;23489;49.600;6.138;2024-03-25T06:19:57;12.75;;;6.30;;
37645;SDS011;23489;49.600;6.138;2024-03-25T06:22:23;13.52;;;6.43;;
37645;SDS011;23489;49.600;6.138;2024-03-25T06:24:49;10.05;;;5.30;;
37645;SDS011;23489;49.600;6.138;2024-03-25T06:27:18;9.60;;;5.13;;
37645;SDS011;23489;49.600;6.138;2024-03-25T06:32:11;9.02;;;4.88;;
37645;SDS011;23489;49.600;6.138;2024-03-25T06:34:56;9.40;;;5.40;;
37645;SDS011;23489;49.600;6.138;2024-03-25T06:37:25;12.30;;;6.00;;
37645;SDS011;23489;49.600;6.138;2024-03-25T06:54:25;16.15;;;5.32;;
37645;SDS011;23489;49.600;6.138;2024-03-25T06:59:16;10.23;;;5.10;;
37645;SDS011;23489;49.600;6.138;2024-03-25T07:01:42;16.73;;;6.15;;
37645;SDS011;23489;49.600;6.138;2024-03-25T07:04:08;15.30;;;5.63;;
37645;SDS011;23489;49.600;6.138;2024-03-25T07:06:33;9.27;;;4.95;;
37645;SDS011;23489;49.600;6.138;2024-03-25T07:08:59;10.50;;;5.70;;
37645;SDS011;23489;49.600;6.138;2024-03-25T07:11:24;10.57;;;4.97;;
37645;SDS011;23489;49.600;6.138;2024-03-25T07:30:51;10.90;;;4.25;;
37645;SDS011;23489;49.600;6.138;2024-03-25T07:33:17;7.93;;;4.28;;
37645;SDS011;23489;49.600;6.138;2024-03-25T07:35:44;7.57;;;4.13;;
37645;SDS011;23489;49.600;6.138;2024-03-25T07:45:27;10.60;;;4.40;;
37645;SDS011;23489;49.600;6.138;2024-03-25T09:05:47;6.20;;;3.75;;
37645;SDS011;23489;49.600;6.138;2024-03-25T09:08:12;5.38;;;3.85;;
37645;SDS011;23489;49.600;6.138;2024-03-25T09:10:38;5.60;;;4.30;;
37645;SDS011;23489;49.600;6.138;2024-03-25T09:30:24;8.75;;;4.13;;
37645;SDS011;23489;49.600;6.138;2024-03-25T09:35:15;8.40;;;4.95;;
37645;SDS011;23489;49.600;6.138;2024-03-25T09:37:41;8.80;;;5.03;;
37645;SDS011;23489;49.600;6.138;2024-03-25T09:40:07;9.40;;;5.07;;
37645;SDS011;23489;49.600;6.138;2024-03-25T09:45:14;7.75;;;4.45;;
37645;SDS011;23489;49.600;6.138;2024-03-25T09:47:43;7.28;;;4.88;;
37645;SDS011;23489;49.600;6.138;2024-03-25T09:50:10;9.37;;;5.07;;
37645;SDS011;23489;49.600;6.138;2024-03-25T09:52:50;9.75;;;4.95;;
37645;SDS011;23489;49.600;6.138;2024-03-25T09:55:16;7.65;;;4.45;;
37645;SDS011;23489;49.600;6.138;2024-03-25T09:57:42;8.63;;;5.05;;
37645;SDS011;23489;49.600;6.138;2024-03-25T10:00:08;8.55;;;4.60;;
37645;SDS011;23489;49.600;6.138;2024-03-25T10:02:39;9.03;;;4.50;;
37645;SDS011;23489;49.600;6.138;2024-03-25T10:05:06;10.00;;;4.88;;
37645;SDS011;23489;49.600;6.138;2024-03-25T10:07:32;8.68;;;4.68;;
37645;SDS011;23489;49.600;6.138;2024-03-25T10:09:58;6.90;;;4.75;;
37645;SDS011;23489;49.600;6.138;2024-03-25T10:12:24;8.17;;;4.40;;
37645;SDS011;23489;49.600;6.138;2024-03-25T10:14:50;6.85;;;4.25;;
37645;SDS011;23489;49.600;6.138;2024-03-25T10:17:17;8.25;;;3.78;;
37645;SDS011;23489;49.600;6.138;2024-03-25T10:56:42;4.07;;;2.60;;
37645;SDS011;23489;49.600;6.138;2024-03-25T10:59:09;4.10;;;2.30;;
37645;SDS011;23489;49.600;6.138;2024-03-25T11:04:03;4.28;;;2.13;;
37645;SDS011;23489;49.600;6.138;2024-03-25T11:08:59;3.22;;;2.25;;
37645;SDS011;23489;49.600;6.138;2024-03-25T11:11:33;5.05;;;2.58;;
37645;SDS011;23489;49.600;6.138;2024-03-25T11:14:02;6.47;;;2.88;;
37645;SDS011;23489;49.600;6.138;2024-03-25T11:16:29;5.83;;;2.50;;
37645;SDS011;23489;49.600;6.138;2024-03-25T11:38:40;5.50;;;2.05;;
37645;SDS011;23489;49.600;6.138;2024-03-25T11:41:09;4.70;;;2.50;;
37645;SDS011;23489;49.600;6.138;2024-03-25T11:43:36;5.97;;;2.78;;
37645;SDS011;23489;49.600;6.138;2024-03-25T11:46:02;5.37;;;2.60;;
37645;SDS011;23489;49.600;6.138;2024-03-25T11:48:31;4.13;;;2.38;;
37645;SDS011;23489;49.600;6.138;2024-03-25T11:50:58;4.95;;;2.40;;
37645;SDS011;23489;49.600;6.138;2024-03-25T11:53:26;5.88;;;2.47;;
37645;SDS011;23489;49.600;6.138;2024-03-25T11:55:52;5.55;;;3.60;;
37645;SDS011;23489;49.600;6.138;2024-03-25T11:58:18;5.07;;;3.07;;
37645;SDS011;23489;49.600;6.138;2024-03-25T12:00:45;3.92;;;2.17;;
37645;SDS011;23489;49.600;6.138;2024-03-25T12:03:14;4.95;;;2.30;;
37645;SDS011;23489;49.600;6.138;2024-03-25T12:05:41;2.78;;;2.08;;
37645;SDS011;23489;49.600;6.138;2024-03-25T12:08:08;4.68;;;2.08;;
37645;SDS011;23489;49.600;6.138;2024-03-25T12:10:35;3.70;;;2.40;;
37645;SDS011;23489;49.600;6.138;2024-03-25T12:13:22;4.93;;;2.33;;
37645;SDS011;23489;49.600;6.138;2024-03-25T12:15:53;8.27;;;2.80;;
37645;SDS011;23489;49.600;6.138;2024-03-25T12:18:18;6.13;;;2.50;;
37645;SDS011;23489;49.600;6.138;2024-03-25T12:20:45;4.28;;;2.63;;
37645;SDS011;23489;49.600;6.138;2024-03-25T12:23:11;5.53;;;2.67;;
37645;SDS011;23489;49.600;6.138;2024-03-25T12:25:37;4.80;;;2.43;;
37645;SDS011;23489;49.600;6.138;2024-03-25T12:28:10;5.00;;;2.70;;
37645;SDS011;23489;49.600;6.138;2024-03-25T12:30:49;4.28;;;2.70;;
37645;SDS011;23489;49.600;6.138;2024-03-25T12:33:16;5.45;;;2.40;;
37645;SDS011;23489;49.600;6.138;2024-03-25T12:35:45;6.65;;;2.75;;
37645;SDS011;23489;49.600;6.138;2024-03-25T12:38:21;5.10;;;2.80;;
37645;SDS011;23489;49.600;6.138;2024-03-25T12:40:48;7.97;;;3.00;;
37645;SDS011;23489;49.600;6.138;2024-03-25T12:43:17;3.30;;;2.23;;
37645;SDS011;23489;49.600;6.138;2024-03-25T12:45:43;5.18;;;2.85;;
37645;SDS011;23489;49.600;6.138;2024-03-25T12:48:09;4.87;;;2.60;;
37645;SDS011;23489;49.600;6.138;2024-03-25T12:50:35;4.05;;;2.38;;
37645;SDS011;23489;49.600;6.138;2024-03-25T12:53:01;3.95;;;2.30;;
37645;SDS011;23489;49.600;6.138;2024-03-25T12:55:29;4.65;;;2.58;;
37645;SDS011;23489;49.600;6.138;2024-03-25T12:57:55;4.82;;;2.30;;
37645;SDS011;23489;49.600;6.138;2024-03-25T13:00:21;4.37;;;2.50;;
37645;SDS011;23489;49.600;6.138;2024-03-25T13:02:46;4.68;;;2.45;;
37645;SDS011;23489;49.600;6.138;2024-03-25T13:05:12;6.40;;;2.70;;
37645;SDS011;23489;49.600;6.138;2024-03-25T13:07:38;5.05;;;2.60;;
37645;SDS011;23489;49.600;6.138;2024-03-25T13:10:04;3.43;;;2.40;;
37645;SDS011;23489;49.600;6.138;2024-03-25T13:12:30;4.25;;;2.53;;
37645;SDS011;23489;49.600;6.138;2024-03-25T13:14:56;4.40;;;2.63;;
37645;SDS011;23489;49.600;6.138;2024-03-25T13:17:24;4.47;;;2.63;;
37645;SDS011;23489;49.600;6.138;2024-03-25T13:19:50;6.90;;;3.00;;
37645;SDS011;23489;49.600;6.138;2024-03-25T13:22:16;4.80;;;2.70;;
37645;SDS011;23489;49.600;6.138;2024-03-25T13:24:41;5.17;;;2.97;;
37645;SDS011;23489;49.600;6.138;2024-03-25T13:27:07;3.58;;;2.70;;
37645;SDS011;23489;49.600;6.138;2024-03-25T13:29:33;4.40;;;2.80;;
37645;SDS011;23489;49.600;6.138;2024-03-25T13:32:02;5.57;;;2.88;;
37645;SDS011;23489;49.600;6.138;2024-03-25T13:34:28;4.83;;;2.87;;
37645;SDS011;23489;49.600;6.138;2024-03-25T13:36:54;6.30;;;3.00;;
37645;SDS011;23489;49.600;6.138;2024-03-25T13:39:19;4.30;;;2.43;;
37645;SDS011;23489;49.600;6.138;2024-03-25T13:41:45;4.55;;;2.60;;
37645;SDS011;23489;49.600;6.138;2024-03-25T13:44:11;5.03;;;2.75;;
37645;SDS011;23489;49.600;6.138;2024-03-25T13:46:37;5.27;;;2.60;;
37645;SDS011;23489;49.600;6.138;2024-03-25T13:49:02;5.03;;;2.75;;
37645;SDS011;23489;49.600;6.138;2024-03-25T13:51:28;5.37;;;2.50;;
37645;SDS011;23489;49.600;6.138;2024-03-25T13:53:54;3.17;;;2.10;;
37645;SDS011;23489;49.600;6.138;2024-03-25T13:56:19;5.50;;;2.38;;
37645;SDS011;23489;49.600;6.138;2024-03-25T13:58:45;3.37;;;2.40;;
37645;SDS011;23489;49.600;6.138;2024-03-25T14:01:11;3.07;;;2.30;;
37645;SDS011;23489;49.600;6.138;2024-03-25T14:03:36;3.78;;;2.75;;
37645;SDS011;23489;49.600;6.138;2024-03-25T14:06:02;5.13;;;2.80;;
37645;SDS011;23489;49.600;6.138;2024-03-25T14:08:28;3.85;;;2.63;;
37645;SDS011;23489;49.600;6.138;2024-03-25T14:10:57;6.57;;;3.20;;
37645;SDS011;23489;49.600;6.138;2024-03-25T14:13:24;5.38;;;3.20;;
37645;SDS011;23489;49.600;6.138;2024-03-25T14:15:50;4.50;;;3.05;;
37645;SDS011;23489;49.600;6.138;2024-03-25T14:18:16;5.88;;;3.28;;
37645;SDS011;23489;49.600;6.138;2024-03-25T14:20:42;5.03;;;3.50;;
37645;SDS011;23489;49.600;6.138;2024-03-25T14:23:08;6.88;;;3.13;;
37645;SDS011;23489;49.600;6.138;2024-03-25T14:25:34;5.07;;;2.80;;
37645;SDS011;23489;49.600;6.138;2024-03-25T14:27:59;5.25;;;2.97;;
37645;SDS011;23489;49.600;6.138;2024-03-25T14:30:25;4.77;;;2.70;;
37645;SDS011;23489;49.600;6.138;2024-03-25T14:32:51;5.10;;;2.72;;
37645;SDS011;23489;49.600;6.138;2024-03-25T14:35:16;5.47;;;2.95;;
37645;SDS011;23489;49.600;6.138;2024-03-25T14:37:42;6.20;;;3.03;;
37645;SDS011;23489;49.600;6.138;2024-03-25T14:40:08;7.28;;;2.78;;
37645;SDS011;23489;49.600;6.138;2024-03-25T14:42:34;5.90;;;3.47;;
37645;SDS011;23489;49.600;6.138;2024-03-25T14:45:00;15.40;;;8.73;;
37645;SDS011;23489;49.600;6.138;2024-03-25T14:47:25;4.72;;;2.60;;
37645;SDS011;23489;49.600;6.138;2024-03-25T14:49:51;6.20;;;2.92;;
37645;SDS011;23489;49.600;6.138;2024-03-25T14:52:17;4.83;;;2.53;;
37645;SDS011;23489;49.600;6.138;2024-03-25T14:54:42;3.92;;;2.75;;
37645;SDS011;23489;49.600;6.138;2024-03-25T14:57:08;4.18;;;2.38;;
37645;SDS011;23489;49.600;6.138;2024-03-25T14:59:34;3.45;;;2.53;;
37645;SDS011;23489;49.600;6.138;2024-03-25T15:02:00;3.80;;;2.35;;
37645;SDS011;23489;49.600;6.138;2024-03-25T15:04:29;4.82;;;2.13;;
37645;SDS011;23489;49.600;6.138;2024-03-25T15:06:55;4.22;;;2.35;;
37645;SDS011;23489;49.600;6.138;2024-03-25T15:09:22;3.80;;;2.25;;
37645;SDS011;23489;49.600;6.138;2024-03-25T15:14:13;3.50;;;2.30;;
37645;SDS011;23489;49.600;6.138;2024-03-25T15:26:23;4.50;;;1.92;;
37645;SDS011;23489;49.600;6.138;2024-03-25T15:28:48;2.33;;;1.70;;
37645;SDS011;23489;49.600;6.138;2024-03-25T15:31:14;3.88;;;1.50;;
37645;SDS011;23489;49.600;6.138;2024-03-25T15:33:40;2.67;;;1.70;;
37645;SDS011;23489;49.600;6.138;2024-03-25T15:36:06;1.80;;;1.50;;
37645;SDS011;23489;49.600;6.138;2024-03-25T15:38:32;4.75;;;1.70;;
37645;SDS011;23489;49.600;6.138;2024-03-25T15:40:58;2.65;;;1.80;;
37645;SDS011;23489;49.600;6.138;2024-03-25T15:43:23;1.88;;;1.52;;
37645;SDS011;23489;49.600;6.138;2024-03-25T15:45:56;3.15;;;1.35;;
37645;SDS011;23489;49.600;6.138;2024-03-25T15:48:23;3.08;;;1.50;;
37645;SDS011;23489;49.600;6.138;2024-03-25T15:50:49;3.67;;;1.88;;
37645;SDS011;23489;49.600;6.138;2024-03-25T15:53:15;2.97;;;1.90;;
37645;SDS011;23489;49.600;6.138;2024-03-25T15:55:41;3.15;;;1.40;;
37645;SDS011;23489;49.600;6.138;2024-03-25T15:58:08;4.70;;;1.73;;
37645;SDS011;23489;49.600;6.138;2024-03-25T16:00:34;3.92;;;1.85;;
37645;SDS011;23489;49.600;6.138;2024-03-25T16:03:01;2.40;;;1.50;;
37645;SDS011;23489;49.600;6.138;2024-03-25T16:05:28;2.95;;;1.40;;
37645;SDS011;23489;49.600;6.138;2024-03-25T16:07:54;5.78;;;1.65;;
37645;SDS011;23489;49.600;6.138;2024-03-25T16:10:28;4.53;;;1.73;;
37645;SDS011;23489;49.600;6.138;2024-03-25T16:13:02;2.72;;;1.35;;
37645;SDS011;23489;49.600;6.138;2024-03-25T16:15:35;3.88;;;1.80;;
37645;SDS011;23489;49.600;6.138;2024-03-25T16:18:01;2.47;;;1.40;;
37645;SDS011;23489;49.600;6.138;2024-03-25T16:20:29;3.40;;;1.75;;
37645;SDS011;23489;49.600;6.138;2024-03-25T16:22:55;3.10;;;1.60;;
37645;SDS011;23489;49.600;6.138;2024-03-25T16:25:21;2.13;;;1.52;;
37645;SDS011;23489;49.600;6.138;2024-03-25T16:27:49;2.95;;;1.50;;
37645;SDS011;23489;49.600;6.138;2024-03-25T16:32:41;2.83;;;1.42;;
37645;SDS011;23489;49.600;6.138;2024-03-25T16:35:08;2.22;;;1.40;;
37645;SDS011;23489;49.600;6.138;2024-03-25T16:37:33;2.88;;;1.60;;
37645;SDS011;23489;49.600;6.138;2024-03-25T16:39:59;3.58;;;1.60;;
37645;SDS011;23489;49.600;6.138;2024-03-25T16:42:26;3.75;;;1.42;;
37645;SDS011;23489;49.600;6.138;2024-03-25T16:44:52;1.98;;;1.60;;
37645;SDS011;23489;49.600;6.138;2024-03-25T16:47:17;2.42;;;1.73;;
37645;SDS011;23489;49.600;6.138;2024-03-25T16:49:43;2.72;;;1.70;;
37645;SDS011;23489;49.600;6.138;2024-03-25T16:52:09;2.15;;;1.40;;
37645;SDS011;23489;49.600;6.138;2024-03-25T16:54:35;1.65;;;1.40;;
37645;SDS011;23489;49.600;6.138;2024-03-25T16:57:00;3.88;;;1.58;;
37645;SDS011;23489;49.600;6.138;2024-03-25T16:59:26;4.78;;;1.88;;
37645;SDS011;23489;49.600;6.138;2024-03-25T17:01:52;2.80;;;2.00;;
37645;SDS011;23489;49.600;6.138;2024-03-25T17:04:20;1.70;;;1.52;;
37645;SDS011;23489;49.600;6.138;2024-03-25T17:06:46;3.17;;;1.75;;
37645;SDS011;23489;49.600;6.138;2024-03-25T17:09:15;2.58;;;1.70;;
37645;SDS011;23489;49.600;6.138;2024-03-25T17:11:43;3.05;;;1.58;;
37645;SDS011;23489;49.600;6.138;2024-03-25T17:14:09;4.93;;;1.80;;
37645;SDS011;23489;49.600;6.138;2024-03-25T17:16:35;6.03;;;2.13;;
37645;SDS011;23489;49.600;6.138;2024-03-25T17:19:01;6.45;;;2.10;;
37645;SDS011;23489;49.600;6.138;2024-03-25T17:21:27;4.53;;;1.92;;
37645;SDS011;23489;49.600;6.138;2024-03-25T17:23:53;5.80;;;2.28;;
37645;SDS011;23489;49.600;6.138;2024-03-25T17:26:19;3.00;;;1.67;;
37645;SDS011;23489;49.600;6.138;2024-03-25T17:28:46;2.58;;;1.70;;
37645;SDS011;23489;49.600;6.138;2024-03-25T17:31:12;2.00;;;1.70;;
37645;SDS011;23489;49.600;6.138;2024-03-25T17:33:41;5.60;;;1.67;;
37645;SDS011;23489;49.600;6.138;2024-03-25T17:36:07;2.90;;;1.70;;
37645;SDS011;23489;49.600;6.138;2024-03-25T17:38:33;5.55;;;1.60;;
37645;SDS011;23489;49.600;6.138;2024-03-25T17:41:00;1.98;;;1.77;;
37645;SDS011;23489;49.600;6.138;2024-03-25T17:43:26;1.90;;;1.67;;
37645;SDS011;23489;49.600;6.138;2024-03-25T17:45:52;2.13;;;1.75;;
37645;SDS011;23489;49.600;6.138;2024-03-25T17:48:18;3.75;;;1.70;;
37645;SDS011;23489;49.600;6.138;2024-03-25T17:50:45;3.75;;;1.70;;
37645;SDS011;23489;49.600;6.138;2024-03-25T17:53:17;3.50;;;1.70;;
37645;SDS011;23489;49.600;6.138;2024-03-25T17:55:43;3.67;;;1.60;;
37645;SDS011;23489;49.600;6.138;2024-03-25T17:58:08;3.03;;;1.83;;
37645;SDS011;23489;49.600;6.138;2024-03-25T18:00:34;5.78;;;1.60;;
37645;SDS011;23489;49.600;6.138;2024-03-25T18:03:00;2.95;;;1.85;;
37645;SDS011;23489;49.600;6.138;2024-03-25T18:05:25;2.63;;;2.00;;
37645;SDS011;23489;49.600;6.138;2024-03-25T18:07:52;2.08;;;1.65;;
37645;SDS011;23489;49.600;6.138;2024-03-25T18:10:17;3.88;;;1.90;;
37645;SDS011;23489;49.600;6.138;2024-03-25T18:12:43;2.53;;;1.73;;
37645;SDS011;23489;49.600;6.138;2024-03-25T18:15:09;3.53;;;1.70;;
37645;SDS011;23489;49.600;6.138;2024-03-25T18:17:35;4.50;;;1.83;;
37645;SDS011;23489;49.600;6.138;2024-03-25T18:20:01;3.75;;;1.88;;
37645;SDS011;23489;49.600;6.138;2024-03-25T18:34:36;3.53;;;1.98;;
37645;SDS011;23489;49.600;6.138;2024-03-25T18:37:03;2.53;;;1.58;;
37645;SDS011;23489;49.600;6.138;2024-03-25T18:39:29;3.28;;;1.80;;
37645;SDS011;23489;49.600;6.138;2024-03-25T18:41:54;3.10;;;1.70;;
37645;SDS011;23489;49.600;6.138;2024-03-25T18:44:20;4.10;;;1.67;;
37645;SDS011;23489;49.600;6.138;2024-03-25T18:46:46;2.60;;;1.75;;
37645;SDS011;23489;49.600;6.138;2024-03-25T18:49:12;4.07;;;2.00;;
37645;SDS011;23489;49.600;6.138;2024-03-25T18:51:38;4.43;;;1.80;;
37645;SDS011;23489;49.600;6.138;2024-03-25T18:54:03;4.13;;;2.20;;
37645;SDS011;23489;49.600;6.138;2024-03-25T18:56:29;2.08;;;1.88;;
37645;SDS011;23489;49.600;6.138;2024-03-25T18:58:55;2.15;;;1.77;;
37645;SDS011;23489;49.600;6.138;2024-03-25T19:01:20;2.20;;;1.83;;
37645;SDS011;23489;49.600;6.138;2024-03-25T19:03:46;3.95;;;1.60;;
37645;SDS011;23489;49.600;6.138;2024-03-25T19:06:12;3.03;;;1.85;;
37645;SDS011;23489;49.600;6.138;2024-03-25T19:08:37;3.85;;;1.83;;
37645;SDS011;23489;49.600;6.138;2024-03-25T19:11:04;3.42;;;1.98;;
37645;SDS011;23489;49.600;6.138;2024-03-25T19:13:29;3.00;;;1.70;;
37645;SDS011;23489;49.600;6.138;2024-03-25T19:15:56;4.93;;;2.20;;
37645;SDS011;23489;49.600;6.138;2024-03-25T19:18:22;4.55;;;1.90;;
37645;SDS011;23489;49.600;6.138;2024-03-25T19:20:48;6.03;;;1.90;;
37645;SDS011;23489;49.600;6.138;2024-03-25T19:23:13;3.20;;;1.98;;
37645;SDS011;23489;49.600;6.138;2024-03-25T19:25:39;2.92;;;2.17;;
37645;SDS011;23489;49.600;6.138;2024-03-25T19:28:05;2.67;;;1.90;;
37645;SDS011;23489;49.600;6.138;2024-03-25T19:30:31;4.30;;;1.83;;
37645;SDS011;23489;49.600;6.138;2024-03-25T19:37:48;3.65;;;2.17;;
37645;SDS011;23489;49.600;6.138;2024-03-25T19:40:13;4.20;;;1.90;;
37645;SDS011;23489;49.600;6.138;2024-03-25T19:42:39;2.60;;;2.10;;
37645;SDS011;23489;49.600;6.138;2024-03-25T19:47:31;2.08;;;1.60;;
37645;SDS011;23489;49.600;6.138;2024-03-25T19:49:57;2.90;;;1.60;;
37645;SDS011;23489;49.600;6.138;2024-03-25T19:52:23;3.60;;;2.38;;
37645;SDS011;23489;49.600;6.138;2024-03-25T19:54:52;4.68;;;2.58;;
37645;SDS011;23489;49.600;6.138;2024-03-25T19:57:17;3.90;;;2.88;;
37645;SDS011;23489;49.600;6.138;2024-03-25T19:59:45;4.03;;;2.42;;
37645;SDS011;23489;49.600;6.138;2024-03-25T20:02:10;4.00;;;2.28;;
37645;SDS011;23489;49.600;6.138;2024-03-25T20:04:37;3.55;;;1.63;;
37645;SDS011;23489;49.600;6.138;2024-03-25T20:07:03;3.80;;;1.70;;
37645;SDS011;23489;49.600;6.138;2024-03-25T20:09:29;5.13;;;2.42;;
37645;SDS011;23489;49.600;6.138;2024-03-25T20:11:54;2.65;;;1.85;;
37645;SDS011;23489;49.600;6.138;2024-03-25T20:14:20;3.45;;;2.45;;
37645;SDS011;23489;49.600;6.138;2024-03-25T20:16:46;7.03;;;2.63;;
37645;SDS011;23489;49.600;6.138;2024-03-25T20:19:12;5.25;;;2.13;;
37645;SDS011;23489;49.600;6.138;2024-03-25T20:21:38;2.10;;;1.90;;
37645;SDS011;23489;49.600;6.138;2024-03-25T20:24:06;5.65;;;2.85;;
37645;SDS011;23489;49.600;6.138;2024-03-25T20:26:32;7.70;;;3.30;;
37645;SDS011;23489;49.600;6.138;2024-03-25T20:28:58;5.57;;;2.90;;
37645;SDS011;23489;49.600;6.138;2024-03-25T20:31:24;6.53;;;4.03;;
37645;SDS011;23489;49.600;6.138;2024-03-25T20:33:49;6.05;;;3.40;;
37645;SDS011;23489;49.600;6.138;2024-03-25T20:36:17;5.03;;;2.67;;
37645;SDS011;23489;49.600;6.138;2024-03-25T20:38:43;4.57;;;1.92;;